Terminal Aerodrome Forecast
Issued by NWS

Home | Current Version | Previous Version | Text Only | Print | Product List | Glossary On
Versions: 1 2 3 4 5 6 7 8 9 10 11 12 13 14 15 16 17 18 19 20
000
FTUS43 KICT 251357 AAA
TAFCNU
TAF AMD
KCNU 251357Z 2514/2612 10010KT P6SM SCT003 BKN025
     FM251500 09007KT P6SM BKN035
     FM251800 18012G20KT P6SM BKN050
     FM260000 17010KT P6SM VCTS BKN035CB
     FM260600 17007KT P6SM BKN015=

USA.gov is the U.S. government's official web portal to all federal, state and local government web resources and services.